sensor_id;sensor_type;location;lat;lon;timestamp;P1;durP1;ratioP1;P2;durP2;ratioP2
28068;SDS011;15382;47.578;8.086;2023-03-04T00:08:49;70.88;;;27.42;;
28068;SDS011;15382;47.578;8.086;2023-03-04T00:18:50;69.35;;;25.88;;
28068;SDS011;15382;47.578;8.086;2023-03-04T00:28:52;67.57;;;26.95;;
28068;SDS011;15382;47.578;8.086;2023-03-04T00:38:54;68.63;;;26.83;;
28068;SDS011;15382;47.578;8.086;2023-03-04T00:48:54;58.13;;;23.20;;
28068;SDS011;15382;47.578;8.086;2023-03-04T00:58:55;60.38;;;23.38;;
28068;SDS011;15382;47.578;8.086;2023-03-04T01:08:56;63.17;;;24.48;;
28068;SDS011;15382;47.578;8.086;2023-03-04T01:18:57;63.05;;;23.80;;
28068;SDS011;15382;47.578;8.086;2023-03-04T01:28:58;62.45;;;23.23;;
28068;SDS011;15382;47.578;8.086;2023-03-04T01:38:59;76.43;;;28.55;;
28068;SDS011;15382;47.578;8.086;2023-03-04T01:48:59;78.47;;;29.63;;
28068;SDS011;15382;47.578;8.086;2023-03-04T01:59:17;67.57;;;26.25;;
28068;SDS011;15382;47.578;8.086;2023-03-04T02:09:20;80.80;;;29.63;;
28068;SDS011;15382;47.578;8.086;2023-03-04T02:29:22;77.35;;;30.60;;
28068;SDS011;15382;47.578;8.086;2023-03-04T02:39:27;74.80;;;29.13;;
28068;SDS011;15382;47.578;8.086;2023-03-04T02:49:32;83.55;;;30.13;;
28068;SDS011;15382;47.578;8.086;2023-03-04T02:59:35;79.65;;;29.20;;
28068;SDS011;15382;47.578;8.086;2023-03-04T03:09:38;78.90;;;27.15;;
28068;SDS011;15382;47.578;8.086;2023-03-04T03:19:39;70.50;;;28.52;;
28068;SDS011;15382;47.578;8.086;2023-03-04T03:29:41;75.22;;;27.02;;
28068;SDS011;15382;47.578;8.086;2023-03-04T03:39:42;78.13;;;27.45;;
28068;SDS011;15382;47.578;8.086;2023-03-04T03:49:43;80.90;;;29.25;;
28068;SDS011;15382;47.578;8.086;2023-03-04T03:59:44;77.82;;;29.38;;
28068;SDS011;15382;47.578;8.086;2023-03-04T04:09:44;85.45;;;29.90;;
28068;SDS011;15382;47.578;8.086;2023-03-04T04:19:45;72.90;;;28.95;;
28068;SDS011;15382;47.578;8.086;2023-03-04T04:29:46;88.35;;;29.90;;
28068;SDS011;15382;47.578;8.086;2023-03-04T04:39:47;80.47;;;30.48;;
28068;SDS011;15382;47.578;8.086;2023-03-04T04:49:47;75.97;;;27.80;;
28068;SDS011;15382;47.578;8.086;2023-03-04T04:59:48;82.35;;;30.25;;
28068;SDS011;15382;47.578;8.086;2023-03-04T05:09:49;104.53;;;34.08;;
28068;SDS011;15382;47.578;8.086;2023-03-04T05:19:50;92.25;;;31.90;;
28068;SDS011;15382;47.578;8.086;2023-03-04T05:29:50;91.35;;;32.08;;
28068;SDS011;15382;47.578;8.086;2023-03-04T05:39:51;101.80;;;35.60;;
28068;SDS011;15382;47.578;8.086;2023-03-04T05:49:52;125.60;;;37.78;;
28068;SDS011;15382;47.578;8.086;2023-03-04T05:59:53;108.57;;;37.10;;
28068;SDS011;15382;47.578;8.086;2023-03-04T06:09:54;121.07;;;38.10;;
28068;SDS011;15382;47.578;8.086;2023-03-04T06:19:55;103.10;;;36.50;;
28068;SDS011;15382;47.578;8.086;2023-03-04T06:29:55;108.95;;;35.90;;
28068;SDS011;15382;47.578;8.086;2023-03-04T06:39:57;96.70;;;33.67;;
28068;SDS011;15382;47.578;8.086;2023-03-04T06:49:58;99.03;;;34.60;;
28068;SDS011;15382;47.578;8.086;2023-03-04T06:59:58;81.00;;;27.73;;
28068;SDS011;15382;47.578;8.086;2023-03-04T07:09:59;93.15;;;36.47;;
28068;SDS011;15382;47.578;8.086;2023-03-04T07:20:00;80.53;;;31.85;;
28068;SDS011;15382;47.578;8.086;2023-03-04T07:30:01;92.82;;;33.67;;
28068;SDS011;15382;47.578;8.086;2023-03-04T07:40:02;90.13;;;35.78;;
28068;SDS011;15382;47.578;8.086;2023-03-04T07:50:03;89.65;;;32.30;;
28068;SDS011;15382;47.578;8.086;2023-03-04T08:00:04;94.78;;;34.28;;
28068;SDS011;15382;47.578;8.086;2023-03-04T08:10:12;88.57;;;33.47;;
28068;SDS011;15382;47.578;8.086;2023-03-04T08:20:13;93.60;;;33.75;;
28068;SDS011;15382;47.578;8.086;2023-03-04T08:30:14;94.10;;;36.00;;
28068;SDS011;15382;47.578;8.086;2023-03-04T08:40:15;112.85;;;37.60;;
28068;SDS011;15382;47.578;8.086;2023-03-04T08:50:16;104.32;;;37.90;;
28068;SDS011;15382;47.578;8.086;2023-03-04T09:00:16;103.38;;;39.10;;
28068;SDS011;15382;47.578;8.086;2023-03-04T09:10:18;98.22;;;39.05;;
28068;SDS011;15382;47.578;8.086;2023-03-04T09:20:18;94.25;;;37.13;;
28068;SDS011;15382;47.578;8.086;2023-03-04T09:30:20;83.55;;;34.47;;
28068;SDS011;15382;47.578;8.086;2023-03-04T09:40:22;98.25;;;33.03;;
28068;SDS011;15382;47.578;8.086;2023-03-04T09:50:26;84.18;;;33.88;;
28068;SDS011;15382;47.578;8.086;2023-03-04T10:00:40;77.60;;;32.33;;
28068;SDS011;15382;47.578;8.086;2023-03-04T10:10:44;76.97;;;33.08;;
28068;SDS011;15382;47.578;8.086;2023-03-04T10:21:01;77.72;;;34.05;;
28068;SDS011;15382;47.578;8.086;2023-03-04T10:41:20;84.13;;;32.97;;
28068;SDS011;15382;47.578;8.086;2023-03-04T10:51:25;82.47;;;32.70;;
28068;SDS011;15382;47.578;8.086;2023-03-04T11:01:27;73.60;;;32.88;;
28068;SDS011;15382;47.578;8.086;2023-03-04T11:11:30;76.75;;;31.65;;
28068;SDS011;15382;47.578;8.086;2023-03-04T11:21:38;70.22;;;31.00;;
28068;SDS011;15382;47.578;8.086;2023-03-04T12:02:43;72.38;;;30.83;;
28068;SDS011;15382;47.578;8.086;2023-03-04T12:13:04;69.25;;;30.10;;
28068;SDS011;15382;47.578;8.086;2023-03-04T12:55:09;63.15;;;29.45;;
28068;SDS011;15382;47.578;8.086;2023-03-04T13:05:32;66.30;;;27.80;;
28068;SDS011;15382;47.578;8.086;2023-03-04T13:15:40;58.90;;;27.35;;
28068;SDS011;15382;47.578;8.086;2023-03-04T13:45:45;64.45;;;28.45;;
28068;SDS011;15382;47.578;8.086;2023-03-04T14:06:22;69.53;;;29.15;;
28068;SDS011;15382;47.578;8.086;2023-03-04T14:16:26;67.60;;;29.75;;
28068;SDS011;15382;47.578;8.086;2023-03-04T14:26:28;62.67;;;27.63;;
28068;SDS011;15382;47.578;8.086;2023-03-04T14:36:31;62.05;;;26.60;;
28068;SDS011;15382;47.578;8.086;2023-03-04T14:46:35;59.95;;;25.63;;
28068;SDS011;15382;47.578;8.086;2023-03-04T14:56:42;64.28;;;26.05;;
28068;SDS011;15382;47.578;8.086;2023-03-04T15:06:48;55.53;;;23.83;;
28068;SDS011;15382;47.578;8.086;2023-03-04T15:16:52;55.47;;;22.88;;
28068;SDS011;15382;47.578;8.086;2023-03-04T15:26:55;58.53;;;23.45;;
28068;SDS011;15382;47.578;8.086;2023-03-04T15:36:56;54.27;;;20.93;;
28068;SDS011;15382;47.578;8.086;2023-03-04T15:47:00;50.47;;;18.77;;
28068;SDS011;15382;47.578;8.086;2023-03-04T15:57:00;45.35;;;18.35;;
28068;SDS011;15382;47.578;8.086;2023-03-04T16:07:08;52.67;;;20.30;;
28068;SDS011;15382;47.578;8.086;2023-03-04T16:17:16;45.42;;;16.98;;
28068;SDS011;15382;47.578;8.086;2023-03-04T16:27:16;38.03;;;17.10;;
28068;SDS011;15382;47.578;8.086;2023-03-04T16:37:19;40.58;;;17.08;;
28068;SDS011;15382;47.578;8.086;2023-03-04T16:57:20;45.03;;;16.33;;
28068;SDS011;15382;47.578;8.086;2023-03-04T17:07:21;45.63;;;16.50;;
28068;SDS011;15382;47.578;8.086;2023-03-04T17:27:22;42.63;;;15.50;;
28068;SDS011;15382;47.578;8.086;2023-03-04T17:47:24;41.50;;;16.10;;
28068;SDS011;15382;47.578;8.086;2023-03-04T17:57:25;45.13;;;17.23;;
28068;SDS011;15382;47.578;8.086;2023-03-04T18:07:26;48.85;;;18.52;;
28068;SDS011;15382;47.578;8.086;2023-03-04T18:17:28;51.72;;;19.55;;
28068;SDS011;15382;47.578;8.086;2023-03-04T18:27:28;73.82;;;25.27;;
28068;SDS011;15382;47.578;8.086;2023-03-04T18:37:29;53.55;;;19.05;;
28068;SDS011;15382;47.578;8.086;2023-03-04T18:47:30;45.50;;;17.48;;
28068;SDS011;15382;47.578;8.086;2023-03-04T18:57:32;56.80;;;20.52;;
28068;SDS011;15382;47.578;8.086;2023-03-04T19:07:33;55.72;;;20.77;;
28068;SDS011;15382;47.578;8.086;2023-03-04T19:17:33;64.28;;;22.10;;
28068;SDS011;15382;47.578;8.086;2023-03-04T19:27:35;62.85;;;22.02;;
28068;SDS011;15382;47.578;8.086;2023-03-04T19:37:35;67.60;;;23.27;;
28068;SDS011;15382;47.578;8.086;2023-03-04T19:47:39;70.75;;;24.27;;
28068;SDS011;15382;47.578;8.086;2023-03-04T19:57:41;71.85;;;24.30;;
28068;SDS011;15382;47.578;8.086;2023-03-04T20:07:42;76.22;;;26.05;;
28068;SDS011;15382;47.578;8.086;2023-03-04T20:17:43;79.53;;;24.80;;
28068;SDS011;15382;47.578;8.086;2023-03-04T20:27:44;78.65;;;27.23;;
28068;SDS011;15382;47.578;8.086;2023-03-04T20:37:44;71.60;;;23.77;;
28068;SDS011;15382;47.578;8.086;2023-03-04T20:47:45;80.63;;;25.08;;
28068;SDS011;15382;47.578;8.086;2023-03-04T20:57:46;89.15;;;29.50;;
28068;SDS011;15382;47.578;8.086;2023-03-04T21:07:48;74.75;;;24.83;;
28068;SDS011;15382;47.578;8.086;2023-03-04T21:17:49;70.90;;;25.52;;
28068;SDS011;15382;47.578;8.086;2023-03-04T21:27:50;71.45;;;22.35;;
28068;SDS011;15382;47.578;8.086;2023-03-04T21:37:50;76.28;;;23.08;;
28068;SDS011;15382;47.578;8.086;2023-03-04T21:47:51;72.18;;;22.33;;
28068;SDS011;15382;47.578;8.086;2023-03-04T21:57:52;56.78;;;19.60;;
28068;SDS011;15382;47.578;8.086;2023-03-04T22:07:53;54.40;;;19.77;;
28068;SDS011;15382;47.578;8.086;2023-03-04T22:17:54;63.20;;;22.33;;
28068;SDS011;15382;47.578;8.086;2023-03-04T22:27:54;79.68;;;23.40;;
28068;SDS011;15382;47.578;8.086;2023-03-04T22:37:55;70.38;;;22.17;;
28068;SDS011;15382;47.578;8.086;2023-03-04T22:47:56;68.53;;;21.48;;
28068;SDS011;15382;47.578;8.086;2023-03-04T22:57:58;65.15;;;23.13;;
28068;SDS011;15382;47.578;8.086;2023-03-04T23:07:59;64.63;;;22.73;;
28068;SDS011;15382;47.578;8.086;2023-03-04T23:17:59;66.95;;;21.35;;
28068;SDS011;15382;47.578;8.086;2023-03-04T23:28:01;82.22;;;23.40;;
28068;SDS011;15382;47.578;8.086;2023-03-04T23:38:02;69.40;;;22.17;;
28068;SDS011;15382;47.578;8.086;2023-03-04T23:48:03;66.80;;;21.98;;
28068;SDS011;15382;47.578;8.086;2023-03-04T23:58:04;73.03;;;23.10;;
